Time;durP1;ratioP1;P1;durP2;ratioP2;P2;SDS_P1;SDS_P2;PMS_P1;PMS_P2;Temp;Humidity;BMP_temperature;BMP_pressure;BME280_temperature;BME280_humidity;BME280_pressure;Samples;Min_cycle;Max_cycle;Signal;HPM_P1;HPM_P2
2022/03/15 00:01:12;;;;;;;;;;;8.20;61.90;;;;;;4994271;28;19910;-65
2022/03/15 00:03:38;;;;;;;;;;;8.30;61.90;;;;;;4994034;28;19910;-64
2022/03/15 00:06:03;;;;;;;;;;;8.30;61.70;;;;;;4996357;28;19918;-62
2022/03/15 00:08:30;;;;;;;;;;;8.20;62.00;;;;;;4998505;28;19935;-58
2022/03/15 00:10:58;;;;;;;;;;;8.10;62.40;;;;;;4997877;28;19913;-64
2022/03/15 00:13:30;;;;;;;;;;;8.20;62.10;;;;;;4997984;28;19910;-62
2022/03/15 00:16:01;;;;;;;;;;;8.00;62.60;;;;;;4997871;28;19913;-58
2022/03/15 00:18:30;;;;;;;;;;;8.00;63.10;;;;;;4997928;28;19916;-76
2022/03/15 00:20:56;;;;;;;;;;;7.90;63.50;;;;;;4998005;28;20273;-74
2022/03/15 00:23:22;;;;;;;;;;;7.80;64.40;;;;;;4997917;28;19957;-75
2022/03/15 00:25:47;;;;;;;;;;;7.80;64.50;;;;;;4997824;28;19956;-72
2022/03/15 00:28:13;;;;;;;;;;;8.00;63.80;;;;;;4996594;28;20410;-71
2022/03/15 00:30:38;;;;;;;;;;;8.10;63.10;;;;;;4996424;28;19917;-72
2022/03/15 00:33:04;;;;;;;;;;;8.20;62.50;;;;;;4996507;28;19963;-69
2022/03/15 00:35:29;;;;;;;;;;;8.00;62.80;;;;;;4997665;28;20269;-69
2022/03/15 00:37:55;;;;;;;;;;;7.80;63.40;;;;;;4997490;28;19926;-71
2022/03/15 00:40:22;;;;;;;;;;;7.80;63.80;;;;;;4997496;28;20350;-60
2022/03/15 00:42:50;;;;;;;;;;;7.80;63.80;;;;;;4997342;28;20412;-64
2022/03/15 00:45:16;;;;;;;;;;;7.70;64.90;;;;;;4997279;28;19910;-67
2022/03/15 00:47:42;;;;;;;;;;;7.70;64.60;;;;;;4997336;28;20373;-60
2022/03/15 00:50:08;;;;;;;;;;;7.50;64.70;;;;;;4997424;28;19917;-65
2022/03/15 00:52:34;;;;;;;;;;;7.50;65.30;;;;;;4997333;28;19909;-65
2022/03/15 00:55:00;;;;;;;;;;;7.40;65.90;;;;;;4997266;28;20000;-65
2022/03/15 00:57:25;;;;;;;;;;;7.40;66.10;;;;;;4997177;28;19914;-60
2022/03/15 00:59:51;;;;;;;;;;;7.60;66.10;;;;;;4997078;28;20358;-61
2022/03/15 01:02:17;;;;;;;;;;;7.60;65.80;;;;;;4997135;28;19914;-63
2022/03/15 01:04:43;;;;;;;;;;;7.60;65.30;;;;;;4997400;28;20289;-58
2022/03/15 01:07:08;;;;;;;;;;;7.60;65.80;;;;;;4997378;28;19917;-58
2022/03/15 01:09:35;;;;;;;;;;;7.60;65.70;;;;;;4997454;28;19909;-58
2022/03/15 01:12:01;;;;;;;;;;;7.60;65.60;;;;;;4997087;28;20413;-58
2022/03/15 01:14:27;;;;;;;;;;;7.60;65.70;;;;;;4996819;28;19948;-58
2022/03/15 01:16:55;;;;;;;;;;;7.60;66.30;;;;;;4996460;28;19914;-62
2022/03/15 01:19:24;;;;;;;;;;;7.60;65.80;;;;;;4997111;28;19916;-58
2022/03/15 01:21:53;;;;;;;;;;;7.50;65.90;;;;;;4995487;28;19961;-58
2022/03/15 01:24:18;;;;;;;;;;;7.50;65.90;;;;;;4996934;28;20325;-56
2022/03/15 01:26:44;;;;;;;;;;;7.50;66.20;;;;;;4996987;28;19940;-61
2022/03/15 01:29:10;;;;;;;;;;;7.60;65.80;;;;;;4996515;28;19992;-59
2022/03/15 01:31:35;;;;;;;;;;;7.60;65.70;;;;;;4996848;28;19916;-57
2022/03/15 01:34:01;;;;;;;;;;;7.60;65.80;;;;;;4997014;28;19910;-57
2022/03/15 01:36:27;;;;;;;;;;;7.50;65.90;;;;;;4996664;28;19920;-57
2022/03/15 01:38:53;;;;;;;;;;;7.50;66.10;;;;;;4996689;28;20001;-59
2022/03/15 01:41:19;;;;;;;;;;;7.60;65.70;;;;;;4997817;28;20334;-64
2022/03/15 01:43:46;;;;;;;;;;;7.80;65.20;;;;;;4996764;28;20448;-74
2022/03/15 01:46:12;;;;;;;;;;;7.60;65.40;;;;;;4996515;28;19923;-68
2022/03/15 01:48:39;;;;;;;;;;;7.70;65.50;;;;;;4996203;28;19910;-60
2022/03/15 01:51:04;;;;;;;;;;;7.60;65.90;;;;;;4995988;28;20362;-66
2022/03/15 01:53:31;;;;;;;;;;;7.50;66.20;;;;;;4996284;28;19921;-63
2022/03/15 01:55:57;;;;;;;;;;;7.40;66.50;;;;;;4996051;28;19913;-66
2022/03/15 01:58:22;;;;;;;;;;;7.40;67.30;;;;;;4995976;28;19914;-59
2022/03/15 02:00:48;;;;;;;;;;;7.50;67.20;;;;;;4996061;28;20362;-64
2022/03/15 02:03:14;;;;;;;;;;;7.60;66.60;;;;;;4995923;28;19988;-63
2022/03/15 02:05:39;;;;;;;;;;;7.60;66.20;;;;;;4996146;28;20431;-61
2022/03/15 02:08:10;;;;;;;;;;;7.80;65.70;;;;;;4995787;28;19929;-61
2022/03/15 02:10:35;;;;;;;;;;;7.70;65.50;;;;;;4995762;28;19913;-59
2022/03/15 02:13:01;;;;;;;;;;;7.60;65.70;;;;;;4995649;28;20278;-57
2022/03/15 02:15:27;;;;;;;;;;;7.50;66.20;;;;;;4995946;28;19910;-59
2022/03/15 02:17:52;;;;;;;;;;;7.30;67.10;;;;;;4995824;28;20412;-64
2022/03/15 02:20:19;;;;;;;;;;;7.30;67.70;;;;;;4995701;28;19914;-70
2022/03/15 02:22:44;;;;;;;;;;;7.30;67.60;;;;;;4995350;28;19918;-67
2022/03/15 02:25:10;;;;;;;;;;;7.30;67.70;;;;;;4995574;28;19956;-60
2022/03/15 02:27:36;;;;;;;;;;;7.30;67.50;;;;;;4995232;28;20254;-70
2022/03/15 02:30:01;;;;;;;;;;;7.50;66.60;;;;;;4995430;28;19910;-64
2022/03/15 02:32:27;;;;;;;;;;;7.50;66.30;;;;;;4995307;28;19910;-61
2022/03/15 02:34:52;;;;;;;;;;;7.50;66.30;;;;;;4995176;28;20000;-64
2022/03/15 02:37:18;;;;;;;;;;;7.40;66.70;;;;;;4995245;28;19933;-65
2022/03/15 02:39:43;;;;;;;;;;;7.50;66.40;;;;;;4995530;28;19917;-64
2022/03/15 02:42:09;;;;;;;;;;;7.60;66.20;;;;;;4995122;28;19957;-58
2022/03/15 02:44:35;;;;;;;;;;;7.50;66.20;;;;;;4995316;28;19937;-59
2022/03/15 02:47:00;;;;;;;;;;;7.60;65.80;;;;;;4995270;28;19910;-59
2022/03/15 02:49:26;;;;;;;;;;;7.70;65.20;;;;;;4995371;28;19916;-58
2022/03/15 02:51:51;;;;;;;;;;;7.70;65.30;;;;;;4995071;28;19910;-57
2022/03/15 02:54:17;;;;;;;;;;;7.70;65.40;;;;;;4995214;28;19910;-56
2022/03/15 02:56:43;;;;;;;;;;;7.70;65.50;;;;;;4995104;28;19910;-57
2022/03/15 02:59:14;;;;;;;;;;;7.70;65.40;;;;;;4995069;28;19945;-61
2022/03/15 03:01:40;;;;;;;;;;;7.80;64.80;;;;;;4994772;28;20400;-64
2022/03/15 03:04:06;;;;;;;;;;;7.80;64.90;;;;;;4994743;28;20333;-57
2022/03/15 03:06:32;;;;;;;;;;;7.60;65.80;;;;;;4994983;28;19910;-62
2022/03/15 03:08:57;;;;;;;;;;;7.50;66.20;;;;;;4995083;28;19910;-58
2022/03/15 03:11:23;;;;;;;;;;;7.40;66.20;;;;;;4994601;28;19909;-60
2022/03/15 03:13:50;;;;;;;;;;;7.60;66.10;;;;;;4995003;28;19957;-60
2022/03/15 03:16:16;;;;;;;;;;;7.70;66.10;;;;;;4994735;28;20416;-60
2022/03/15 03:18:42;;;;;;;;;;;7.70;65.80;;;;;;4995124;28;19913;-63
2022/03/15 03:21:07;;;;;;;;;;;7.60;65.40;;;;;;4993391;28;20258;-58
2022/03/15 03:23:37;;;;;;;;;;;7.70;65.60;;;;;;4994757;28;19914;-64
2022/03/15 03:26:03;;;;;;;;;;;7.60;65.80;;;;;;4994755;28;20362;-65
2022/03/15 03:28:38;;;;;;;;;;;7.60;66.20;;;;;;4994933;28;19910;-57
2022/03/15 03:31:05;;;;;;;;;;;7.50;67.40;;;;;;4994365;28;19910;-57
2022/03/15 03:33:31;;;;;;;;;;;7.40;67.10;;;;;;4994363;28;19964;-58
2022/03/15 03:35:56;;;;;;;;;;;7.30;67.70;;;;;;4994623;28;20344;-57
2022/03/15 03:38:22;;;;;;;;;;;7.40;67.90;;;;;;4994121;28;19928;-62
2022/03/15 03:40:48;;;;;;;;;;;7.20;68.20;;;;;;4994258;28;20003;-61
2022/03/15 03:43:13;;;;;;;;;;;7.20;68.60;;;;;;4994446;28;19917;-58
2022/03/15 03:45:39;;;;;;;;;;;7.10;69.30;;;;;;4993024;28;19917;-61
2022/03/15 03:48:06;;;;;;;;;;;6.90;70.10;;;;;;4994181;28;20374;-58
2022/03/15 03:50:32;;;;;;;;;;;6.80;70.80;;;;;;4994212;28;20370;-57
2022/03/15 03:52:57;;;;;;;;;;;6.80;70.90;;;;;;4993980;28;20282;-60
2022/03/15 03:55:23;;;;;;;;;;;6.80;71.00;;;;;;4994473;28;19909;-57
2022/03/15 03:57:49;;;;;;;;;;;6.70;71.20;;;;;;4994343;28;19910;-59
2022/03/15 04:00:15;;;;;;;;;;;6.70;71.40;;;;;;4994293;28;19952;-64
2022/03/15 04:02:41;;;;;;;;;;;6.80;71.70;;;;;;4994123;28;19963;-62
2022/03/15 04:05:06;;;;;;;;;;;6.80;72.10;;;;;;4994070;28;20362;-64
2022/03/15 04:07:35;;;;;;;;;;;7.00;72.00;;;;;;4994252;28;19964;-58
2022/03/15 04:10:00;;;;;;;;;;;7.10;71.10;;;;;;4994347;28;19910;-58
2022/03/15 04:12:29;;;;;;;;;;;7.20;71.00;;;;;;4994084;28;20388;-60
2022/03/15 04:14:56;;;;;;;;;;;7.30;70.90;;;;;;4994129;28;19910;-59
2022/03/15 04:17:23;;;;;;;;;;;7.10;71.50;;;;;;4994261;28;20020;-58
2022/03/15 04:19:49;;;;;;;;;;;7.00;72.30;;;;;;4994170;28;19910;-60
2022/03/15 04:22:14;;;;;;;;;;;7.10;72.00;;;;;;4993989;28;19917;-58
2022/03/15 04:24:40;;;;;;;;;;;7.30;71.30;;;;;;4994109;28;20001;-58
2022/03/15 04:27:05;;;;;;;;;;;7.50;70.30;;;;;;4998984;28;20362;-58
2022/03/15 04:29:31;;;;;;;;;;;7.60;69.50;;;;;;4997569;28;19941;-61
2022/03/15 04:31:57;;;;;;;;;;;7.70;69.50;;;;;;4993963;28;19909;-58
2022/03/15 04:34:22;;;;;;;;;;;7.50;69.70;;;;;;4993916;28;19917;-56
2022/03/15 04:36:48;;;;;;;;;;;7.40;70.60;;;;;;4993672;28;19917;-59
2022/03/15 04:39:13;;;;;;;;;;;7.40;70.70;;;;;;4994165;28;19910;-58
2022/03/15 04:41:39;;;;;;;;;;;7.50;70.60;;;;;;4993993;28;19921;-63
2022/03/15 04:44:05;;;;;;;;;;;7.50;70.20;;;;;;4994108;28;19916;-61
2022/03/15 04:46:32;;;;;;;;;;;7.50;70.30;;;;;;4993999;28;20369;-60
2022/03/15 04:48:57;;;;;;;;;;;7.50;70.60;;;;;;4993877;28;19910;-59
2022/03/15 04:51:24;;;;;;;;;;;7.50;70.50;;;;;;4994584;28;19910;-63
2022/03/15 04:53:50;;;;;;;;;;;7.60;70.30;;;;;;4997526;28;19910;-62
2022/03/15 04:56:15;;;;;;;;;;;7.50;70.30;;;;;;4997615;28;19968;-57
2022/03/15 04:58:41;;;;;;;;;;;7.40;70.80;;;;;;4997374;28;19910;-63
2022/03/15 05:01:07;;;;;;;;;;;7.30;71.30;;;;;;4997335;28;19993;-61
2022/03/15 05:03:35;;;;;;;;;;;7.30;71.30;;;;;;4997014;28;19918;-61
2022/03/15 05:06:01;;;;;;;;;;;7.30;71.50;;;;;;4997278;28;19964;-66
2022/03/15 05:08:26;;;;;;;;;;;7.40;72.00;;;;;;4997255;28;20329;-62
2022/03/15 05:11:07;;;;;;;;;;;7.30;71.80;;;;;;4995797;28;20452;-63
2022/03/15 05:13:39;;;;;;;;;;;7.30;72.00;;;;;;4996875;28;19914;-63
2022/03/15 05:16:15;;;;;;;;;;;7.20;72.60;;;;;;4997171;28;20023;-62
2022/03/15 05:18:41;;;;;;;;;;;7.10;73.10;;;;;;4996867;28;20000;-61
2022/03/15 05:21:07;;;;;;;;;;;7.00;73.50;;;;;;4997002;28;19941;-68
2022/03/15 05:23:33;;;;;;;;;;;6.80;74.10;;;;;;4996794;28;19929;-67
2022/03/15 05:25:58;;;;;;;;;;;6.70;74.80;;;;;;4996882;28;19910;-66
2022/03/15 05:28:24;;;;;;;;;;;6.70;75.10;;;;;;4996629;28;19997;-62
2022/03/15 05:30:50;;;;;;;;;;;6.70;75.20;;;;;;4996600;28;19917;-65
2022/03/15 05:33:16;;;;;;;;;;;6.80;74.60;;;;;;4996443;28;19910;-62
2022/03/15 05:35:41;;;;;;;;;;;6.90;74.20;;;;;;4996515;28;19940;-74
2022/03/15 05:38:07;;;;;;;;;;;7.00;74.10;;;;;;4996502;28;20309;-62
2022/03/15 05:40:34;;;;;;;;;;;7.10;73.90;;;;;;4996665;28;19999;-70
2022/03/15 05:42:59;;;;;;;;;;;7.10;73.70;;;;;;4996346;28;19917;-70
2022/03/15 05:45:25;;;;;;;;;;;7.00;74.00;;;;;;4996219;28;20009;-74
2022/03/15 05:47:51;;;;;;;;;;;7.00;73.90;;;;;;4996579;28;19913;-69
2022/03/15 05:50:17;;;;;;;;;;;6.80;74.70;;;;;;4996510;28;19947;-72
2022/03/15 05:52:43;;;;;;;;;;;6.90;74.60;;;;;;4994931;28;20001;-71
2022/03/15 05:55:10;;;;;;;;;;;7.00;74.50;;;;;;4995977;28;19910;-65
2022/03/15 05:57:36;;;;;;;;;;;7.10;74.50;;;;;;4995154;28;20285;-65
2022/03/15 06:00:01;;;;;;;;;;;7.20;73.80;;;;;;4996268;28;19997;-58
2022/03/15 06:02:27;;;;;;;;;;;7.40;73.10;;;;;;4995570;28;20013;-65
2022/03/15 06:04:52;;;;;;;;;;;7.60;72.60;;;;;;4996320;28;19918;-57
2022/03/15 06:07:18;;;;;;;;;;;7.70;71.80;;;;;;4996132;28;19910;-57
2022/03/15 06:09:44;;;;;;;;;;;7.70;72.30;;;;;;4996227;28;19949;-57
2022/03/15 06:12:09;;;;;;;;;;;7.70;72.00;;;;;;4995674;28;19917;-57
2022/03/15 06:14:35;;;;;;;;;;;7.90;71.70;;;;;;4995786;28;19914;-57
2022/03/15 06:17:00;;;;;;;;;;;7.90;72.80;;;;;;4996034;28;20008;-58
2022/03/15 06:19:26;;;;;;;;;;;7.80;72.90;;;;;;4995709;28;19910;-56
2022/03/15 06:21:52;;;;;;;;;;;7.70;72.90;;;;;;4995602;28;19925;-60
2022/03/15 06:24:17;;;;;;;;;;;7.80;73.10;;;;;;4995714;28;19910;-57
2022/03/15 06:26:43;;;;;;;;;;;7.70;73.50;;;;;;4995796;28;20370;-57
2022/03/15 06:29:09;;;;;;;;;;;7.70;73.70;;;;;;4995383;28;19910;-59
2022/03/15 06:31:35;;;;;;;;;;;7.90;73.60;;;;;;4995234;28;19917;-56
2022/03/15 06:34:01;;;;;;;;;;;8.00;72.20;;;;;;4995423;28;19953;-58
2022/03/15 06:36:26;;;;;;;;;;;8.20;71.50;;;;;;4995438;28;20298;-63
2022/03/15 06:38:53;;;;;;;;;;;8.30;71.00;;;;;;4995614;28;19914;-64
2022/03/15 06:41:19;;;;;;;;;;;8.40;70.70;;;;;;4995320;28;20363;-56
2022/03/15 06:43:45;;;;;;;;;;;8.60;70.10;;;;;;4995128;28;19921;-59
2022/03/15 06:46:10;;;;;;;;;;;8.60;69.50;;;;;;4995419;28;19917;-58
2022/03/15 06:48:36;;;;;;;;;;;8.50;70.60;;;;;;4995301;28;19962;-58
2022/03/15 06:51:02;;;;;;;;;;;8.40;71.30;;;;;;4995220;28;19910;-58
2022/03/15 06:53:28;;;;;;;;;;;8.50;71.50;;;;;;4994928;28;19917;-57
2022/03/15 06:55:54;;;;;;;;;;;8.70;70.20;;;;;;4995174;28;19910;-58
2022/03/15 06:58:20;;;;;;;;;;;9.00;69.00;;;;;;4995039;28;20259;-59
2022/03/15 07:00:47;;;;;;;;;;;9.20;68.30;;;;;;4994937;28;20001;-61
2022/03/15 07:03:13;;;;;;;;;;;9.50;71.00;;;;;;4994797;28;20016;-58
2022/03/15 07:05:39;;;;;;;;;;;9.90;69.50;;;;;;4995026;28;20048;-60
2022/03/15 07:08:06;;;;;;;;;;;10.20;66.40;;;;;;4994926;28;19968;-60
2022/03/15 07:10:32;;;;;;;;;;;10.20;65.50;;;;;;4994892;28;20370;-60
2022/03/15 07:12:57;;;;;;;;;;;10.30;64.50;;;;;;4994719;28;19914;-58
2022/03/15 07:15:23;;;;;;;;;;;10.40;64.40;;;;;;5000489;28;19917;-64
2022/03/15 07:17:50;;;;;;;;;;;10.60;64.30;;;;;;4998190;28;19916;-60
2022/03/15 07:20:16;;;;;;;;;;;11.00;65.10;;;;;;4994761;28;19932;-60
2022/03/15 07:22:41;;;;;;;;;;;11.30;64.00;;;;;;4994365;28;20453;-60
2022/03/15 07:25:07;;;;;;;;;;;11.80;61.80;;;;;;4994723;28;20001;-59
2022/03/15 07:27:33;;;;;;;;;;;12.10;59.80;;;;;;4994458;28;19917;-57
2022/03/15 07:29:58;;;;;;;;;;;12.50;59.60;;;;;;4994235;28;19910;-58
2022/03/15 07:32:24;;;;;;;;;;;12.60;57.70;;;;;;4994499;28;19966;-58
2022/03/15 07:34:50;;;;;;;;;;;12.80;57.30;;;;;;4994458;28;20368;-56
2022/03/15 07:37:15;;;;;;;;;;;12.60;56.50;;;;;;4994329;28;20355;-58
2022/03/15 07:39:41;;;;;;;;;;;12.50;56.50;;;;;;4994322;28;19910;-59
2022/03/15 07:42:06;;;;;;;;;;;12.40;57.10;;;;;;4994246;28;19918;-58
2022/03/15 07:44:32;;;;;;;;;;;12.20;57.30;;;;;;4994381;28;20000;-58
2022/03/15 07:46:58;;;;;;;;;;;12.10;58.20;;;;;;4994446;28;19909;-58
2022/03/15 07:49:24;;;;;;;;;;;12.10;57.80;;;;;;4994021;28;19909;-58
2022/03/15 07:51:49;;;;;;;;;;;11.90;58.80;;;;;;4993898;28;19909;-57
2022/03/15 07:54:16;;;;;;;;;;;11.80;59.30;;;;;;4994240;28;19967;-57
2022/03/15 07:56:41;;;;;;;;;;;11.80;58.40;;;;;;4994396;28;19914;-57
2022/03/15 07:59:07;;;;;;;;;;;11.80;58.50;;;;;;4993586;28;19955;-57
2022/03/15 08:01:33;;;;;;;;;;;11.90;58.60;;;;;;4993707;28;19914;-57
2022/03/15 08:03:58;;;;;;;;;;;12.00;57.90;;;;;;4993281;28;19914;-61
2022/03/15 08:06:24;;;;;;;;;;;12.10;57.50;;;;;;4983760;28;20410;-57
2022/03/15 08:08:53;;;;;;;;;;;12.20;57.40;;;;;;4983412;28;19916;-62
2022/03/15 08:11:18;;;;;;;;;;;12.20;57.30;;;;;;4983908;28;19921;-63
2022/03/15 08:13:44;;;;;;;;;;;12.20;57.40;;;;;;4983705;28;19914;-62
2022/03/15 08:16:10;;;;;;;;;;;12.20;56.90;;;;;;4985637;28;20066;-63
2022/03/15 08:18:35;;;;;;;;;;;12.30;57.00;;;;;;4984652;28;19918;-65
2022/03/15 08:21:01;;;;;;;;;;;12.30;56.60;;;;;;4983800;28;19911;-63
2022/03/15 08:23:27;;;;;;;;;;;12.10;56.90;;;;;;4983043;28;19925;-61
2022/03/15 08:25:55;;;;;;;;;;;12.10;57.10;;;;;;4984491;28;20363;-57
2022/03/15 08:28:23;;;;;;;;;;;12.20;56.90;;;;;;4978666;28;20010;-55
2022/03/15 08:30:48;;;;;;;;;;;12.20;56.80;;;;;;4978591;28;20282;-58
2022/03/15 08:33:14;;;;;;;;;;;12.20;57.00;;;;;;4978779;28;20013;-61
2022/03/15 08:35:39;;;;;;;;;;;12.10;56.30;;;;;;4978688;28;20404;-68
2022/03/15 08:38:05;;;;;;;;;;;12.00;57.00;;;;;;4978126;28;19930;-68
2022/03/15 08:40:31;;;;;;;;;;;12.10;57.30;;;;;;4978290;28;20350;-57
2022/03/15 08:42:56;;;;;;;;;;;12.00;57.40;;;;;;4982543;28;19969;-55
2022/03/15 08:45:22;;;;;;;;;;;11.80;57.20;;;;;;4982004;28;19957;-63
2022/03/15 08:47:48;;;;;;;;;;;11.90;57.90;;;;;;4996665;28;19909;-57
2022/03/15 08:50:13;;;;;;;;;;;12.10;57.30;;;;;;4996902;28;19910;-63
2022/03/15 08:52:39;;;;;;;;;;;11.90;57.30;;;;;;4996950;28;19909;-57
2022/03/15 08:55:05;;;;;;;;;;;11.80;58.10;;;;;;4997128;28;20001;-62
2022/03/15 08:57:30;;;;;;;;;;;11.90;58.20;;;;;;4997176;28;20120;-64
2022/03/15 08:59:56;;;;;;;;;;;12.00;57.70;;;;;;4997060;28;19955;-57
2022/03/15 09:02:22;;;;;;;;;;;12.20;57.50;;;;;;4997072;28;19925;-60
2022/03/15 09:04:47;;;;;;;;;;;12.20;57.00;;;;;;4996918;28;19914;-58
2022/03/15 09:07:13;;;;;;;;;;;12.30;56.90;;;;;;4996825;28;19999;-58
2022/03/15 09:09:38;;;;;;;;;;;12.30;56.50;;;;;;4996921;28;20023;-56
2022/03/15 09:12:05;;;;;;;;;;;12.40;56.50;;;;;;4996729;28;19914;-56
2022/03/15 09:14:30;;;;;;;;;;;12.30;56.80;;;;;;4996759;28;19910;-56
2022/03/15 09:16:57;;;;;;;;;;;12.50;57.30;;;;;;4996951;28;19951;-57
2022/03/15 09:19:23;;;;;;;;;;;12.10;57.40;;;;;;4996816;28;20055;-56
2022/03/15 09:21:48;;;;;;;;;;;12.00;58.00;;;;;;4996575;28;20357;-56
2022/03/15 09:24:14;;;;;;;;;;;12.00;58.30;;;;;;4996854;28;20343;-56
2022/03/15 09:26:42;;;;;;;;;;;12.10;58.50;;;;;;4996632;28;19917;-61
2022/03/15 09:29:12;;;;;;;;;;;12.30;58.40;;;;;;4996538;28;19910;-55
2022/03/15 09:31:38;;;;;;;;;;;12.50;57.80;;;;;;4996581;28;19910;-55
2022/03/15 09:34:04;;;;;;;;;;;12.50;56.40;;;;;;4996640;28;19917;-55
2022/03/15 09:36:29;;;;;;;;;;;12.40;57.00;;;;;;4996500;28;19933;-54
2022/03/15 09:38:55;;;;;;;;;;;12.10;57.50;;;;;;4996186;28;19960;-55
2022/03/15 09:41:24;;;;;;;;;;;12.10;57.80;;;;;;4996346;28;20003;-62
2022/03/15 09:43:51;;;;;;;;;;;12.30;57.90;;;;;;4996637;28;20267;-55
2022/03/15 09:46:21;;;;;;;;;;;12.50;57.70;;;;;;4996596;28;19910;-55
2022/03/15 09:48:51;;;;;;;;;;;12.70;57.50;;;;;;4996415;28;20286;-58
2022/03/15 09:51:18;;;;;;;;;;;12.80;56.50;;;;;;4996420;28;20274;-55
2022/03/15 09:53:44;;;;;;;;;;;12.90;56.20;;;;;;4996150;28;19914;-55
2022/03/15 09:56:11;;;;;;;;;;;13.00;55.80;;;;;;4996194;28;19916;-59
2022/03/15 09:58:37;;;;;;;;;;;13.00;55.70;;;;;;4996211;28;19910;-56
2022/03/15 10:01:02;;;;;;;;;;;12.70;56.20;;;;;;4996080;28;20376;-56
2022/03/15 10:03:29;;;;;;;;;;;12.30;56.40;;;;;;4995894;28;19922;-55
2022/03/15 10:05:55;;;;;;;;;;;12.30;57.70;;;;;;4996264;28;19910;-55
2022/03/15 10:08:20;;;;;;;;;;;12.40;57.10;;;;;;4996343;28;19910;-55
2022/03/15 10:10:50;;;;;;;;;;;12.40;57.20;;;;;;4996366;28;19910;-55
2022/03/15 10:13:16;;;;;;;;;;;12.60;57.70;;;;;;4995664;28;19913;-53
2022/03/15 10:15:51;;;;;;;;;;;12.60;56.60;;;;;;4995208;28;19910;-55
2022/03/15 10:18:17;;;;;;;;;;;13.00;60.20;;;;;;4995118;28;19914;-54
2022/03/15 10:20:43;;;;;;;;;;;13.30;59.80;;;;;;4995002;28;19917;-55
2022/03/15 10:23:11;;;;;;;;;;;13.70;58.60;;;;;;4995003;28;19918;-55
2022/03/15 10:25:37;;;;;;;;;;;13.90;56.00;;;;;;4994985;28;20481;-60
2022/03/15 10:28:04;;;;;;;;;;;13.50;54.60;;;;;;4995729;28;19910;-55
2022/03/15 10:30:30;;;;;;;;;;;13.30;54.60;;;;;;4993547;28;19996;-55
2022/03/15 10:32:57;;;;;;;;;;;13.60;57.30;;;;;;4994943;28;20401;-54
2022/03/15 10:35:24;;;;;;;;;;;13.70;55.60;;;;;;4994755;28;19916;-55
2022/03/15 10:37:50;;;;;;;;;;;13.40;54.30;;;;;;4994697;28;19945;-56
2022/03/15 10:40:16;;;;;;;;;;;12.80;55.40;;;;;;4994984;28;19960;-56
2022/03/15 10:42:44;;;;;;;;;;;12.80;56.70;;;;;;4994247;28;21374;-57
2022/03/15 10:45:22;;;;;;;;;;;13.00;56.70;;;;;;4995489;28;19917;-68
2022/03/15 10:47:51;;;;;;;;;;;13.20;56.10;;;;;;4994295;28;19914;-64
2022/03/15 10:50:18;;;;;;;;;;;13.00;55.40;;;;;;4993768;28;20025;-70
2022/03/15 10:52:45;;;;;;;;;;;12.80;56.70;;;;;;4994606;28;19910;-58
2022/03/15 10:55:19;;;;;;;;;;;12.80;56.60;;;;;;4994601;28;19964;-59
2022/03/15 10:58:05;;;;;;;;;;;12.40;56.50;;;;;;4994512;28;20000;-59
2022/03/15 11:00:33;;;;;;;;;;;12.50;57.50;;;;;;4994712;28;19921;-57
2022/03/15 11:03:00;;;;;;;;;;;12.70;57.30;;;;;;4994286;28;19957;-56
2022/03/15 11:05:27;;;;;;;;;;;13.00;56.80;;;;;;4994387;28;19996;-56
2022/03/15 11:07:53;;;;;;;;;;;12.60;56.30;;;;;;4994377;28;19918;-56
2022/03/15 11:10:19;;;;;;;;;;;12.50;56.80;;;;;;4994181;28;20012;-56
2022/03/15 11:13:17;;;;;;;;;;;12.40;57.50;;;;;;4993648;28;19922;-56
2022/03/15 11:15:47;;;;;;;;;;;12.40;58.80;;;;;;5001737;28;19914;-58
2022/03/15 11:18:13;;;;;;;;;;;13.10;61.60;;;;;;4993948;28;19940;-65
2022/03/15 11:20:40;;;;;;;;;;;13.20;56.00;;;;;;4993349;28;20052;-62
2022/03/15 11:23:07;;;;;;;;;;;12.90;55.90;;;;;;4993857;28;19976;-64
2022/03/15 11:25:53;;;;;;;;;;;13.10;56.30;;;;;;4993868;28;19971;-67
2022/03/15 11:28:21;;;;;;;;;;;13.10;55.90;;;;;;5004304;28;20277;-65
2022/03/15 11:30:49;;;;;;;;;;;12.90;56.50;;;;;;4989156;28;19964;-66
2022/03/15 11:33:16;;;;;;;;;;;13.00;56.50;;;;;;4994055;28;19997;-63
2022/03/15 11:35:41;;;;;;;;;;;13.20;56.40;;;;;;4994103;28;19914;-64
2022/03/15 11:38:09;;;;;;;;;;;13.20;55.90;;;;;;4993846;28;19933;-62
2022/03/15 11:40:35;;;;;;;;;;;13.30;56.20;;;;;;4994068;28;19914;-68
2022/03/15 11:43:00;;;;;;;;;;;13.40;56.60;;;;;;4994053;28;19938;-64
2022/03/15 11:45:33;;;;;;;;;;;13.60;57.30;;;;;;4993999;28;20379;-66
2022/03/15 11:48:11;;;;;;;;;;;13.50;56.20;;;;;;4993946;28;19910;-66
2022/03/15 11:50:37;;;;;;;;;;;13.20;56.40;;;;;;4993993;28;19909;-66
2022/03/15 11:53:22;;;;;;;;;;;13.00;56.80;;;;;;4993798;28;19910;-67
2022/03/15 11:56:23;;;;;;;;;;;13.00;57.90;;;;;;4992321;28;20001;-60
2022/03/15 11:58:53;;;;;;;;;;;13.00;58.50;;;;;;5011158;28;19916;-66
2022/03/15 12:01:21;;;;;;;;;;;12.80;56.90;;;;;;4999714;28;20250;-74
2022/03/15 12:03:47;;;;;;;;;;;12.70;58.00;;;;;;4997767;28;19921;-70
2022/03/15 12:06:22;;;;;;;;;;;12.70;58.40;;;;;;4997673;28;19909;-58
2022/03/15 12:08:57;;;;;;;;;;;12.90;58.30;;;;;;4997780;28;19910;-57
2022/03/15 12:11:28;;;;;;;;;;;12.90;57.80;;;;;;4997703;28;19914;-65
2022/03/15 12:14:00;;;;;;;;;;;12.30;59.50;;;;;;4997778;28;19910;-59
2022/03/15 12:16:32;;;;;;;;;;;12.10;59.90;;;;;;4997632;28;19968;-60
2022/03/15 12:19:02;;;;;;;;;;;12.30;61.50;;;;;;4997628;28;20274;-63
2022/03/15 12:21:28;;;;;;;;;;;12.20;59.80;;;;;;4997412;28;19910;-58
2022/03/15 12:23:54;;;;;;;;;;;12.20;60.00;;;;;;4997500;28;20432;-65
2022/03/15 12:26:22;;;;;;;;;;;12.20;60.10;;;;;;4997531;28;19972;-73
2022/03/15 12:29:14;;;;;;;;;;;12.00;60.50;;;;;;4997494;28;19913;-71
2022/03/15 12:31:41;;;;;;;;;;;11.80;61.90;;;;;;4997793;28;20321;-66
2022/03/15 12:34:10;;;;;;;;;;;12.10;61.50;;;;;;4997235;28;19910;-71
2022/03/15 12:36:40;;;;;;;;;;;12.30;60.50;;;;;;4997087;28;19918;-61
2022/03/15 12:39:10;;;;;;;;;;;12.50;59.90;;;;;;4997065;28;19920;-64
2022/03/15 12:41:39;;;;;;;;;;;12.70;59.70;;;;;;4997064;28;19917;-69
2022/03/15 12:44:06;;;;;;;;;;;12.50;59.50;;;;;;4996018;28;20002;-62
2022/03/15 12:46:31;;;;;;;;;;;12.50;59.90;;;;;;4997104;28;19918;-72
2022/03/15 12:49:04;;;;;;;;;;;12.20;60.50;;;;;;4996947;28;19914;-70
2022/03/15 12:51:37;;;;;;;;;;;12.10;61.80;;;;;;4996195;28;19917;-69
2022/03/15 12:54:04;;;;;;;;;;;12.10;61.70;;;;;;4997037;28;19910;-64
2022/03/15 12:56:30;;;;;;;;;;;12.20;61.20;;;;;;4999675;28;19910;-60
2022/03/15 12:58:55;;;;;;;;;;;12.10;61.40;;;;;;4998255;28;20024;-71
2022/03/15 13:01:21;;;;;;;;;;;12.20;61.40;;;;;;4996472;28;19921;-64
2022/03/15 13:03:48;;;;;;;;;;;12.40;61.30;;;;;;4996238;28;20286;-70
2022/03/15 13:06:18;;;;;;;;;;;12.20;61.50;;;;;;4996227;28;19933;-65
2022/03/15 13:08:53;;;;;;;;;;;12.10;61.30;;;;;;4995997;28;19910;-62
2022/03/15 13:11:19;;;;;;;;;;;11.80;62.40;;;;;;4995768;28;19910;-77
2022/03/15 13:13:46;;;;;;;;;;;11.80;63.40;;;;;;4995048;28;19910;-62
2022/03/15 13:16:12;;;;;;;;;;;11.90;63.30;;;;;;4996390;28;20012;-61
2022/03/15 13:18:38;;;;;;;;;;;12.10;62.40;;;;;;4996493;28;20056;-65
2022/03/15 13:21:05;;;;;;;;;;;11.90;62.20;;;;;;4994579;28;20025;-68
2022/03/15 13:23:33;;;;;;;;;;;11.60;63.30;;;;;;4995515;28;19964;-69
2022/03/15 13:26:03;;;;;;;;;;;11.40;64.50;;;;;;4995928;28;19911;-61
2022/03/15 13:28:29;;;;;;;;;;;11.40;65.10;;;;;;4995743;28;21340;-61
2022/03/15 13:30:57;;;;;;;;;;;11.40;65.00;;;;;;4995764;28;19909;-65
2022/03/15 13:33:26;;;;;;;;;;;11.40;65.10;;;;;;4995714;28;19973;-69
2022/03/15 13:35:57;;;;;;;;;;;11.40;65.10;;;;;;4996060;28;19910;-72
2022/03/15 13:38:25;;;;;;;;;;;11.40;65.40;;;;;;4996067;28;19922;-65
2022/03/15 13:40:51;;;;;;;;;;;11.40;65.00;;;;;;4996085;28;19910;-67
2022/03/15 13:43:20;;;;;;;;;;;11.50;64.60;;;;;;4995774;28;20370;-63
2022/03/15 13:45:46;;;;;;;;;;;11.40;65.50;;;;;;4996064;28;19920;-61
2022/03/15 13:48:12;;;;;;;;;;;11.30;66.20;;;;;;4994712;28;19910;-60
2022/03/15 13:50:38;;;;;;;;;;;11.50;65.70;;;;;;4995932;28;19910;-63
2022/03/15 13:53:17;;;;;;;;;;;11.70;65.70;;;;;;4995855;28;19980;-61
2022/03/15 13:55:43;;;;;;;;;;;11.90;64.80;;;;;;4996049;28;19910;-63
2022/03/15 13:58:08;;;;;;;;;;;11.80;64.70;;;;;;4995696;28;19937;-60
2022/03/15 14:00:35;;;;;;;;;;;11.50;64.60;;;;;;4995171;28;20315;-57
2022/03/15 14:03:06;;;;;;;;;;;11.70;64.90;;;;;;4994430;28;19918;-67
2022/03/15 14:05:32;;;;;;;;;;;11.80;65.00;;;;;;4985657;28;19920;-59
2022/03/15 14:08:02;;;;;;;;;;;11.50;65.50;;;;;;4989652;28;19964;-58
2022/03/15 14:10:27;;;;;;;;;;;11.50;66.20;;;;;;4995073;28;20012;-58
2022/03/15 14:12:55;;;;;;;;;;;11.60;66.40;;;;;;4995533;28;20318;-57
2022/03/15 14:15:22;;;;;;;;;;;11.40;66.50;;;;;;4995575;28;19964;-56
2022/03/15 14:17:49;;;;;;;;;;;11.20;66.90;;;;;;4995491;28;20318;-56
2022/03/15 14:20:41;;;;;;;;;;;11.40;67.20;;;;;;4995431;28;19945;-57
2022/03/15 14:23:10;;;;;;;;;;;11.60;66.40;;;;;;4995257;28;19945;-64